Time;durP1;ratioP1;P1;durP2;ratioP2;P2;SDS_P1;SDS_P2;PMS_P1;PMS_P2;Temp;Humidity;BMP_temperature;BMP_pressure;BME280_temperature;BME280_humidity;BME280_pressure;Samples;Min_cycle;Max_cycle;Signal;HPM_P1;HPM_P2
2022/12/15 00:39:34;;;;;;;;;;;-3.70;99.90;;;;;;5035158;28;19967;-84
2022/12/15 00:42:00;;;;;;;;;;;-3.70;99.90;;;;;;5033661;28;19909;-82
2022/12/15 00:44:25;;;;;;;;;;;-3.70;99.90;;;;;;5035199;28;20362;-82
2022/12/15 00:46:54;;;;;;;;;;;-3.60;99.90;;;;;;5033660;28;19909;-83
2022/12/15 01:22:38;;;;;;;;;;;-4.00;99.90;;;;;;5041428;28;19970;-83
2022/12/15 01:25:04;;;;;;;;;;;-4.00;99.90;;;;;;5041704;28;20004;-84
2022/12/15 01:27:30;;;;;;;;;;;-3.90;99.90;;;;;;5041184;28;20350;-85
2022/12/15 01:29:55;;;;;;;;;;;-4.00;99.90;;;;;;5040965;28;19917;-85
2022/12/15 01:32:21;;;;;;;;;;;-4.00;99.90;;;;;;5038550;28;20019;-84
2022/12/15 01:34:46;;;;;;;;;;;-4.00;99.90;;;;;;5039449;28;19917;-85
2022/12/15 01:37:12;;;;;;;;;;;-4.00;99.90;;;;;;5037992;28;20366;-85
2022/12/15 01:42:21;;;;;;;;;;;-4.00;99.90;;;;;;5039871;28;20317;-83
2022/12/15 01:44:49;;;;;;;;;;;-4.00;99.90;;;;;;5037915;28;19909;-84
2022/12/15 01:47:15;;;;;;;;;;;-4.00;99.90;;;;;;5038197;28;19992;-85
2022/12/15 01:49:41;;;;;;;;;;;-4.00;99.90;;;;;;5038099;28;19983;-85
2022/12/15 01:52:07;;;;;;;;;;;-4.00;99.90;;;;;;5037538;28;20338;-84
2022/12/15 01:54:53;;;;;;;;;;;-4.00;99.90;;;;;;5039128;28;19985;-83
2022/12/15 01:57:23;;;;;;;;;;;-4.00;99.90;;;;;;5037407;28;19909;-85
2022/12/15 01:59:50;;;;;;;;;;;-4.00;99.90;;;;;;5038550;28;20059;-83
2022/12/15 02:02:16;;;;;;;;;;;-4.00;99.90;;;;;;5041218;28;19910;-83
2022/12/15 02:04:43;;;;;;;;;;;-4.00;99.90;;;;;;5037001;28;19958;-85
2022/12/15 02:07:12;;;;;;;;;;;-3.90;99.90;;;;;;5036762;28;19963;-85
2022/12/15 02:09:38;;;;;;;;;;;-3.90;99.90;;;;;;5036687;28;19909;-84
2022/12/15 02:12:13;;;;;;;;;;;-3.90;99.90;;;;;;5036010;28;20285;-84
2022/12/15 02:14:57;;;;;;;;;;;-4.00;99.90;;;;;;5037869;28;19915;-84
2022/12/15 02:17:49;;;;;;;;;;;-4.00;99.90;;;;;;5037725;28;19913;-83
2022/12/15 02:20:14;;;;;;;;;;;-4.00;99.90;;;;;;5034448;28;19917;-82
2022/12/15 02:22:56;;;;;;;;;;;-4.00;99.90;;;;;;5034305;28;19932;-83
2022/12/15 02:25:21;;;;;;;;;;;-4.00;99.90;;;;;;5034694;28;20016;-83
2022/12/15 02:28:02;;;;;;;;;;;-4.10;99.90;;;;;;5034645;28;19952;-83
2022/12/15 02:30:31;;;;;;;;;;;-4.10;99.90;;;;;;5034375;28;19999;-83
2022/12/15 02:33:02;;;;;;;;;;;-4.10;99.90;;;;;;5033874;28;19913;-82
2022/12/15 02:35:38;;;;;;;;;;;-4.10;99.90;;;;;;5034303;28;19960;-84
2022/12/15 02:38:03;;;;;;;;;;;-4.10;99.90;;;;;;5034261;28;19909;-83
2022/12/15 02:40:29;;;;;;;;;;;-4.10;99.90;;;;;;5034217;28;20288;-83
2022/12/15 02:42:57;;;;;;;;;;;-4.10;99.90;;;;;;5035556;28;19916;-82
2022/12/15 02:45:31;;;;;;;;;;;-4.10;99.90;;;;;;5034430;28;19913;-83
2022/12/15 02:48:29;;;;;;;;;;;-4.10;99.90;;;;;;5033952;28;20345;-82
2022/12/15 02:51:21;;;;;;;;;;;-4.10;99.90;;;;;;5033072;28;20366;-82
2022/12/15 02:53:56;;;;;;;;;;;-4.10;99.90;;;;;;5033762;28;20282;-83
2022/12/15 02:56:30;;;;;;;;;;;-4.10;99.90;;;;;;5035204;28;19979;-82
2022/12/15 02:59:02;;;;;;;;;;;-4.10;99.90;;;;;;5034015;28;19967;-83
2022/12/15 03:01:30;;;;;;;;;;;-4.10;99.90;;;;;;5033467;28;19917;-82
2022/12/15 03:03:57;;;;;;;;;;;-4.10;99.90;;;;;;5033599;28;19913;-82
2022/12/15 03:06:23;;;;;;;;;;;-4.10;99.90;;;;;;5033504;28;19909;-82
2022/12/15 03:08:49;;;;;;;;;;;-4.10;99.90;;;;;;5034591;28;20007;-83
2022/12/15 03:11:14;;;;;;;;;;;-4.10;99.90;;;;;;5033323;28;20371;-83
2022/12/15 03:13:40;;;;;;;;;;;-4.20;99.90;;;;;;5033168;28;19909;-83
2022/12/15 03:16:05;;;;;;;;;;;-4.20;99.90;;;;;;5034844;28;20317;-82
2022/12/15 03:18:31;;;;;;;;;;;-4.20;99.90;;;;;;5033119;28;19913;-83
2022/12/15 03:20:56;;;;;;;;;;;-4.20;99.90;;;;;;5033279;28;20429;-83
2022/12/15 03:23:23;;;;;;;;;;;-4.20;99.90;;;;;;5032240;28;20409;-83
2022/12/15 03:25:49;;;;;;;;;;;-4.20;99.90;;;;;;5034526;28;20425;-82
2022/12/15 03:28:14;;;;;;;;;;;-4.20;99.90;;;;;;5032934;28;20302;-82
2022/12/15 03:30:40;;;;;;;;;;;-4.20;99.90;;;;;;5034370;28;19909;-83
2022/12/15 03:33:05;;;;;;;;;;;-4.20;99.90;;;;;;5032482;28;20355;-83
2022/12/15 03:35:32;;;;;;;;;;;-4.20;99.90;;;;;;5044532;28;19995;-83
2022/12/15 03:37:58;;;;;;;;;;;-4.30;99.90;;;;;;5038446;28;20345;-83
2022/12/15 03:40:23;;;;;;;;;;;-4.30;99.90;;;;;;5036991;28;19959;-83
2022/12/15 03:42:49;;;;;;;;;;;-4.30;99.90;;;;;;5035384;28;19916;-84
2022/12/15 03:45:19;;;;;;;;;;;-4.30;99.90;;;;;;5035410;28;19976;-83
2022/12/15 03:47:44;;;;;;;;;;;-4.30;99.90;;;;;;5035750;28;19920;-81
2022/12/15 03:50:10;;;;;;;;;;;-4.30;99.90;;;;;;5037180;28;19909;-83
2022/12/15 03:52:36;;;;;;;;;;;-4.30;99.90;;;;;;5036973;28;19960;-84
2022/12/15 03:55:02;;;;;;;;;;;-4.30;99.90;;;;;;5036572;28;19909;-84
2022/12/15 03:57:27;;;;;;;;;;;-4.30;99.90;;;;;;5035486;28;19909;-85
2022/12/15 03:59:53;;;;;;;;;;;-4.40;99.90;;;;;;5036432;28;19913;-84
2022/12/15 04:02:18;;;;;;;;;;;-4.40;99.90;;;;;;5037318;28;19917;-85
2022/12/15 04:04:44;;;;;;;;;;;-4.40;99.90;;;;;;5036051;28;19913;-85
2022/12/15 04:07:09;;;;;;;;;;;-4.40;99.90;;;;;;5034631;28;19935;-84
2022/12/15 04:09:35;;;;;;;;;;;-4.40;99.90;;;;;;5040881;28;19920;-82
2022/12/15 04:12:02;;;;;;;;;;;-4.30;99.90;;;;;;5032786;28;19936;-83
2022/12/15 04:14:28;;;;;;;;;;;-4.40;99.90;;;;;;5033396;28;20294;-83
2022/12/15 04:16:54;;;;;;;;;;;-4.40;99.90;;;;;;5033285;28;19932;-83
2022/12/15 04:22:03;;;;;;;;;;;-4.40;99.90;;;;;;5033667;28;19998;-82
2022/12/15 05:33:19;;;;;;;;;;;-4.40;99.90;;;;;;5099457;22;20252;-86
2022/12/15 05:35:45;;;;;;;;;;;-4.40;99.90;;;;;;5059503;28;19984;-87
2022/12/15 05:38:10;;;;;;;;;;;-4.40;99.90;;;;;;5077887;28;19909;-86
2022/12/15 05:40:36;;;;;;;;;;;-4.40;99.90;;;;;;5075011;28;20338;-86
2022/12/15 05:43:01;;;;;;;;;;;-4.40;99.90;;;;;;5076192;28;19909;-83
2022/12/15 05:45:27;;;;;;;;;;;-4.40;99.90;;;;;;5077399;28;19955;-87
2022/12/15 05:47:53;;;;;;;;;;;-4.30;99.90;;;;;;5080366;28;20293;-86
2022/12/15 05:50:19;;;;;;;;;;;-4.40;99.90;;;;;;5082353;28;19909;-87
2022/12/15 05:52:45;;;;;;;;;;;-4.40;99.90;;;;;;5083170;28;19916;-86
2022/12/15 05:55:10;;;;;;;;;;;-4.40;99.90;;;;;;5079283;28;19909;-86
2022/12/15 05:57:36;;;;;;;;;;;-4.30;99.90;;;;;;5077567;28;20010;-84
2022/12/15 06:00:03;;;;;;;;;;;-4.30;99.90;;;;;;5077380;28;19958;-86
2022/12/15 06:02:28;;;;;;;;;;;-4.30;99.90;;;;;;5077920;28;19916;-87
2022/12/15 06:04:54;;;;;;;;;;;-4.30;99.90;;;;;;5077880;28;19912;-84
2022/12/15 06:07:19;;;;;;;;;;;-4.30;99.90;;;;;;5080157;28;19936;-87
2022/12/15 06:09:45;;;;;;;;;;;-4.30;99.90;;;;;;5079590;28;19920;-86
2022/12/15 06:12:11;;;;;;;;;;;-4.30;99.90;;;;;;5077939;28;19916;-85
2022/12/15 06:14:36;;;;;;;;;;;-4.30;99.90;;;;;;5079513;28;19909;-83
2022/12/15 06:17:02;;;;;;;;;;;-4.30;99.90;;;;;;5077590;28;19962;-87
2022/12/15 06:19:27;;;;;;;;;;;-4.30;99.90;;;;;;5077392;28;19951;-85
2022/12/15 06:21:53;;;;;;;;;;;-4.30;99.90;;;;;;5078432;28;19909;-86
2022/12/15 06:24:18;;;;;;;;;;;-4.30;99.90;;;;;;5079217;28;19915;-86
2022/12/15 06:26:44;;;;;;;;;;;-4.40;99.90;;;;;;5080723;28;20003;-85
2022/12/15 06:29:10;;;;;;;;;;;-4.40;99.90;;;;;;5082024;28;19908;-87
2022/12/15 06:31:36;;;;;;;;;;;-4.40;99.90;;;;;;5079478;28;19909;-84
2022/12/15 06:34:03;;;;;;;;;;;-4.40;99.90;;;;;;5076519;28;20305;-84
2022/12/15 06:36:29;;;;;;;;;;;-4.40;99.90;;;;;;5075994;28;19908;-84
2022/12/15 06:38:57;;;;;;;;;;;-4.40;99.90;;;;;;5076999;28;20011;-85
2022/12/15 06:41:23;;;;;;;;;;;-4.40;99.90;;;;;;5077066;28;20534;-84
2022/12/15 06:43:49;;;;;;;;;;;-4.40;99.90;;;;;;5076596;28;19915;-83
2022/12/15 06:46:15;;;;;;;;;;;-4.40;99.90;;;;;;5076857;28;19948;-83
2022/12/15 06:48:43;;;;;;;;;;;-4.40;99.90;;;;;;5075256;28;20522;-84
2022/12/15 06:51:09;;;;;;;;;;;-4.40;99.90;;;;;;5074855;28;19984;-84
2022/12/15 06:53:36;;;;;;;;;;;-4.40;99.90;;;;;;5076852;28;19913;-86
2022/12/15 06:56:03;;;;;;;;;;;-4.50;99.90;;;;;;5076234;28;19908;-85
2022/12/15 06:58:28;;;;;;;;;;;-4.50;99.90;;;;;;5076681;28;19919;-84
2022/12/15 07:00:54;;;;;;;;;;;-4.50;99.90;;;;;;5075406;28;19916;-85
2022/12/15 07:03:20;;;;;;;;;;;-4.50;99.90;;;;;;5076860;28;19908;-86
2022/12/15 07:05:46;;;;;;;;;;;-4.50;99.90;;;;;;5075690;28;19908;-85
2022/12/15 07:08:12;;;;;;;;;;;-4.50;99.90;;;;;;5076905;28;19909;-83
2022/12/15 07:10:39;;;;;;;;;;;-4.60;99.90;;;;;;5076325;28;19931;-83
2022/12/15 07:13:04;;;;;;;;;;;-4.50;99.90;;;;;;5076335;28;20422;-84
2022/12/15 07:15:30;;;;;;;;;;;-4.60;99.90;;;;;;5075978;28;19909;-84
2022/12/15 07:17:55;;;;;;;;;;;-4.60;99.90;;;;;;5075277;28;19908;-83
2022/12/15 07:20:21;;;;;;;;;;;-4.60;99.90;;;;;;5077467;28;19961;-83
2022/12/15 07:22:50;;;;;;;;;;;-4.50;99.90;;;;;;5077287;28;19908;-84
2022/12/15 07:25:15;;;;;;;;;;;-4.50;99.90;;;;;;5075380;28;20424;-83
2022/12/15 07:27:41;;;;;;;;;;;-4.50;99.90;;;;;;5075085;28;19951;-84
2022/12/15 07:30:06;;;;;;;;;;;-4.50;99.90;;;;;;5075702;28;19916;-84
2022/12/15 07:32:32;;;;;;;;;;;-4.50;99.90;;;;;;5076516;28;19919;-85
2022/12/15 07:34:57;;;;;;;;;;;-4.40;99.90;;;;;;5074687;28;19916;-84
2022/12/15 07:37:23;;;;;;;;;;;-4.30;99.90;;;;;;5076405;28;19977;-83
2022/12/15 07:39:48;;;;;;;;;;;-4.20;99.90;;;;;;5075111;28;20334;-84
2022/12/15 07:42:14;;;;;;;;;;;-4.10;99.90;;;;;;5076448;28;19913;-85
2022/12/15 07:44:39;;;;;;;;;;;-4.00;99.90;;;;;;5077380;28;19995;-85
2022/12/15 07:47:05;;;;;;;;;;;-3.90;99.90;;;;;;5074841;28;19938;-85
2022/12/15 07:49:30;;;;;;;;;;;-3.80;99.90;;;;;;5076341;28;19908;-84
2022/12/15 07:51:57;;;;;;;;;;;-3.70;99.90;;;;;;5075002;28;20388;-84
2022/12/15 07:54:22;;;;;;;;;;;-3.50;99.90;;;;;;5075153;28;19915;-85
2022/12/15 07:56:48;;;;;;;;;;;-3.50;99.90;;;;;;5075092;28;19908;-83
2022/12/15 07:59:14;;;;;;;;;;;-3.40;99.90;;;;;;5075032;28;19919;-85
2022/12/15 08:01:39;;;;;;;;;;;-3.30;99.90;;;;;;5077152;28;19908;-84
2022/12/15 08:04:05;;;;;;;;;;;-3.20;99.90;;;;;;5075963;28;20426;-83
2022/12/15 08:06:31;;;;;;;;;;;-3.20;99.90;;;;;;5076354;28;19971;-85
2022/12/15 08:08:57;;;;;;;;;;;-3.10;99.90;;;;;;5075281;28;19909;-85
2022/12/15 08:11:23;;;;;;;;;;;-3.00;99.90;;;;;;5074110;28;19915;-84
2022/12/15 08:13:49;;;;;;;;;;;-2.90;99.90;;;;;;5074455;28;19916;-84
2022/12/15 08:16:14;;;;;;;;;;;-2.80;99.90;;;;;;5074831;28;19912;-83
2022/12/15 08:18:40;;;;;;;;;;;-2.80;99.90;;;;;;5076016;28;19913;-84
2022/12/15 08:21:07;;;;;;;;;;;-2.80;99.90;;;;;;5076148;28;20362;-85
2022/12/15 08:23:32;;;;;;;;;;;-2.70;99.90;;;;;;5075083;28;20070;-84
2022/12/15 08:26:03;;;;;;;;;;;-2.60;99.90;;;;;;5076073;28;20401;-84
2022/12/15 08:28:29;;;;;;;;;;;-2.60;99.90;;;;;;5074566;28;19950;-82
2022/12/15 08:30:54;;;;;;;;;;;-2.60;99.90;;;;;;5076025;28;19961;-85
2022/12/15 08:33:20;;;;;;;;;;;-2.60;99.90;;;;;;5075426;28;19919;-85
2022/12/15 08:35:46;;;;;;;;;;;-2.50;99.90;;;;;;5079200;28;19915;-85
2022/12/15 08:38:11;;;;;;;;;;;-2.50;99.90;;;;;;5093757;28;19913;-85
2022/12/15 08:40:37;;;;;;;;;;;-2.40;99.90;;;;;;5078029;28;20011;-83
2022/12/15 08:43:02;;;;;;;;;;;-2.20;99.90;;;;;;5073466;28;19916;-83
2022/12/15 08:45:28;;;;;;;;;;;-2.20;99.90;;;;;;5072168;28;20387;-84
2022/12/15 08:47:54;;;;;;;;;;;-2.20;99.90;;;;;;5071610;28;19915;-83
2022/12/15 08:50:20;;;;;;;;;;;-2.30;99.90;;;;;;5060488;28;19927;-88
2022/12/15 08:52:45;;;;;;;;;;;-2.30;99.90;;;;;;5055015;28;20356;-86
2022/12/15 08:55:11;;;;;;;;;;;-2.30;99.90;;;;;;5056544;28;20321;-86
2022/12/15 08:57:37;;;;;;;;;;;-2.30;99.90;;;;;;5055644;28;19909;-87
2022/12/15 09:00:04;;;;;;;;;;;-2.40;99.90;;;;;;5054252;28;20628;-85
2022/12/15 09:02:29;;;;;;;;;;;-2.50;99.90;;;;;;5063664;28;19916;-88
2022/12/15 09:04:55;;;;;;;;;;;-2.40;99.90;;;;;;5075253;28;19908;-86
2022/12/15 09:07:20;;;;;;;;;;;-2.20;99.90;;;;;;5075979;28;19916;-88
2022/12/15 09:09:46;;;;;;;;;;;-2.10;99.90;;;;;;5074273;28;19955;-88
2022/12/15 09:12:11;;;;;;;;;;;-2.10;99.90;;;;;;5074661;28;19915;-86
2022/12/15 09:14:37;;;;;;;;;;;-2.00;99.90;;;;;;5075684;28;20393;-87
2022/12/15 09:17:02;;;;;;;;;;;-2.00;99.90;;;;;;5074967;28;19916;-87
2022/12/15 09:19:28;;;;;;;;;;;-1.90;99.90;;;;;;5072228;28;19916;-87
2022/12/15 09:21:54;;;;;;;;;;;-1.80;99.90;;;;;;5074303;28;19924;-88
2022/12/15 09:24:23;;;;;;;;;;;-1.80;99.90;;;;;;5079569;28;19908;-86
2022/12/15 09:26:48;;;;;;;;;;;-1.70;99.90;;;;;;5077906;28;20389;-89
2022/12/15 09:29:14;;;;;;;;;;;-1.50;99.90;;;;;;5077121;28;19948;-87
2022/12/15 09:31:39;;;;;;;;;;;-1.50;99.90;;;;;;5077834;28;19913;-86
2022/12/15 09:34:05;;;;;;;;;;;-1.40;99.90;;;;;;5077456;28;19916;-87
2022/12/15 09:36:34;;;;;;;;;;;-1.40;99.90;;;;;;5079753;28;19915;-89
2022/12/15 09:39:01;;;;;;;;;;;-1.40;99.90;;;;;;5076431;28;20057;-87
2022/12/15 09:41:30;;;;;;;;;;;-1.40;99.90;;;;;;5074848;28;19916;-87
2022/12/15 09:44:16;;;;;;;;;;;-1.30;99.90;;;;;;5077092;28;19919;-86
2022/12/15 09:47:00;;;;;;;;;;;-1.20;99.90;;;;;;5077164;28;19915;-86
2022/12/15 09:49:28;;;;;;;;;;;-1.10;99.90;;;;;;5076730;28;20381;-84
2022/12/15 09:52:17;;;;;;;;;;;-1.00;99.90;;;;;;5075786;28;19912;-83
2022/12/15 09:54:43;;;;;;;;;;;-0.90;99.90;;;;;;5067854;28;19909;-83
2022/12/15 09:57:15;;;;;;;;;;;-0.90;99.90;;;;;;5075950;28;19913;-87
2022/12/15 10:00:05;;;;;;;;;;;-0.70;99.90;;;;;;5075806;28;19920;-86
2022/12/15 10:02:47;;;;;;;;;;;-0.70;99.90;;;;;;5075780;28;19908;-84
2022/12/15 10:05:25;;;;;;;;;;;-0.80;99.90;;;;;;5076052;28;20396;-86
2022/12/15 10:07:50;;;;;;;;;;;-1.00;99.90;;;;;;5077095;28;19908;-83
2022/12/15 10:10:36;;;;;;;;;;;-1.00;99.90;;;;;;5075763;28;19908;-85
2022/12/15 10:13:06;;;;;;;;;;;-0.90;99.90;;;;;;5076468;28;19908;-84
2022/12/15 10:15:40;;;;;;;;;;;-1.00;99.90;;;;;;5075616;28;19908;-86
2022/12/15 10:18:10;;;;;;;;;;;-0.90;99.90;;;;;;5075680;28;20289;-83
2022/12/15 10:20:36;;;;;;;;;;;-0.90;99.90;;;;;;5076095;28;19908;-84
2022/12/15 10:23:10;;;;;;;;;;;-0.90;99.90;;;;;;5075092;28;20354;-84
2022/12/15 10:25:35;;;;;;;;;;;-1.00;99.90;;;;;;5075583;28;19915;-85
2022/12/15 10:28:01;;;;;;;;;;;-1.10;99.90;;;;;;5076838;28;20418;-84
2022/12/15 10:30:26;;;;;;;;;;;-1.10;99.90;;;;;;5075506;28;19909;-85
2022/12/15 10:33:02;;;;;;;;;;;-1.20;99.90;;;;;;5074387;28;19908;-84
2022/12/15 10:35:32;;;;;;;;;;;-1.20;99.90;;;;;;5075048;28;19916;-85
2022/12/15 10:37:59;;;;;;;;;;;-1.20;99.90;;;;;;5075222;28;20263;-86
2022/12/15 10:40:41;;;;;;;;;;;-1.10;99.90;;;;;;5075241;28;19920;-84
2022/12/15 10:43:12;;;;;;;;;;;-1.00;99.90;;;;;;5075164;28;20499;-84
2022/12/15 10:45:38;;;;;;;;;;;-0.90;99.90;;;;;;5075177;28;19954;-85
2022/12/15 10:48:05;;;;;;;;;;;-0.60;99.90;;;;;;5077754;28;19909;-88
2022/12/15 10:50:32;;;;;;;;;;;-0.40;99.90;;;;;;5077631;28;19909;-86
2022/12/15 10:52:57;;;;;;;;;;;0.00;99.90;;;;;;5077356;28;19908;-85
2022/12/15 10:55:39;;;;;;;;;;;0.30;99.90;;;;;;5077031;28;19909;-86
2022/12/15 10:58:16;;;;;;;;;;;0.60;99.90;;;;;;5076832;28;20004;-86
2022/12/15 11:00:41;;;;;;;;;;;0.90;99.90;;;;;;5076254;28;20392;-86
2022/12/15 11:03:24;;;;;;;;;;;1.00;99.90;;;;;;5076361;28;19952;-86
2022/12/15 11:05:54;;;;;;;;;;;1.30;99.90;;;;;;5076951;28;20300;-87
2022/12/15 11:08:21;;;;;;;;;;;1.40;99.90;;;;;;5076771;28;19909;-87
2022/12/15 11:13:34;;;;;;;;;;;2.00;99.90;;;;;;5077525;28;19919;-87
2022/12/15 11:16:09;;;;;;;;;;;2.20;99.90;;;;;;5075492;28;19947;-87
2022/12/15 11:18:41;;;;;;;;;;;2.30;99.90;;;;;;5075495;28;19917;-85
2022/12/15 11:21:16;;;;;;;;;;;2.40;99.90;;;;;;5075590;28;20329;-85
2022/12/15 11:24:10;;;;;;;;;;;2.30;99.90;;;;;;5075949;28;19915;-87
2022/12/15 11:26:45;;;;;;;;;;;2.40;99.90;;;;;;5067673;28;19950;-87
2022/12/15 11:29:14;;;;;;;;;;;3.10;99.90;;;;;;5074651;28;19908;-85
2022/12/15 11:31:41;;;;;;;;;;;3.90;99.90;;;;;;5073640;28;19909;-85
2022/12/15 11:34:12;;;;;;;;;;;4.90;99.90;;;;;;5105454;22;19964;-84
2022/12/15 11:36:56;;;;;;;;;;;5.40;99.90;;;;;;5096281;28;19941;-80
2022/12/15 11:39:21;;;;;;;;;;;5.40;99.90;;;;;;5095793;28;19912;-81
2022/12/15 11:41:53;;;;;;;;;;;4.30;99.90;;;;;;5099897;28;19908;-81
2022/12/15 11:44:39;;;;;;;;;;;3.20;99.90;;;;;;5094782;28;19909;-82
2022/12/15 11:47:30;;;;;;;;;;;2.40;99.90;;;;;;5094825;28;19946;-81
2022/12/15 11:50:14;;;;;;;;;;;1.80;99.90;;;;;;5095036;28;19908;-82
2022/12/15 11:52:51;;;;;;;;;;;1.20;99.90;;;;;;5096193;28;19912;-81
2022/12/15 11:55:23;;;;;;;;;;;0.70;99.90;;;;;;5097271;28;19915;-81
2022/12/15 11:57:54;;;;;;;;;;;0.50;99.90;;;;;;5096861;28;20270;-81
2022/12/15 12:00:20;;;;;;;;;;;0.50;99.90;;;;;;5096741;28;19955;-81
2022/12/15 12:02:46;;;;;;;;;;;0.50;99.90;;;;;;5096298;28;19916;-82
2022/12/15 12:05:23;;;;;;;;;;;0.70;99.90;;;;;;5098158;28;19931;-82
2022/12/15 12:07:51;;;;;;;;;;;0.90;99.90;;;;;;5097296;28;19909;-81
2022/12/15 12:10:20;;;;;;;;;;;0.80;99.90;;;;;;5096957;28;19908;-81
2022/12/15 12:13:09;;;;;;;;;;;0.80;99.90;;;;;;5095906;28;19908;-82
2022/12/15 12:15:40;;;;;;;;;;;0.80;99.90;;;;;;5090294;28;20012;-82
2022/12/15 12:18:11;;;;;;;;;;;1.00;99.90;;;;;;5094170;28;19908;-81
2022/12/15 12:20:58;;;;;;;;;;;1.20;99.90;;;;;;5093010;28;19996;-80
2022/12/15 12:23:35;;;;;;;;;;;2.10;99.90;;;;;;5093285;28;19908;-81
2022/12/15 12:26:03;;;;;;;;;;;2.50;99.90;;;;;;5092710;28;19915;-81
2022/12/15 12:28:44;;;;;;;;;;;3.40;99.90;;;;;;5092253;28;20266;-80
2022/12/15 12:31:16;;;;;;;;;;;5.10;99.90;;;;;;5094645;28;19915;-83
2022/12/15 12:33:45;;;;;;;;;;;6.80;99.90;;;;;;5093293;28;19923;-81
2022/12/15 12:36:12;;;;;;;;;;;7.20;99.90;;;;;;5095874;28;19908;-81
2022/12/15 12:38:49;;;;;;;;;;;7.20;99.90;;;;;;5093260;28;19947;-82
2022/12/15 12:41:38;;;;;;;;;;;6.70;99.90;;;;;;5093389;28;19954;-83
2022/12/15 12:44:18;;;;;;;;;;;6.10;99.90;;;;;;5090058;28;19908;-82
2022/12/15 12:46:46;;;;;;;;;;;5.50;99.90;;;;;;5093464;28;19939;-82
2022/12/15 12:49:16;;;;;;;;;;;6.00;99.90;;;;;;5093870;28;20395;-82
2022/12/15 12:51:48;;;;;;;;;;;7.30;99.90;;;;;;5091990;28;19958;-82
2022/12/15 12:54:32;;;;;;;;;;;8.50;99.90;;;;;;5091869;28;19908;-82
2022/12/15 12:56:58;;;;;;;;;;;9.00;99.10;;;;;;5092392;28;19908;-82
2022/12/15 12:59:26;;;;;;;;;;;9.70;97.50;;;;;;5091841;28;20342;-81
2022/12/15 13:01:53;;;;;;;;;;;10.00;95.30;;;;;;5092686;28;20384;-83
2022/12/15 13:04:21;;;;;;;;;;;10.00;92.30;;;;;;5091488;28;19908;-83
2022/12/15 13:06:47;;;;;;;;;;;9.90;93.40;;;;;;5091608;28;19915;-83
2022/12/15 13:09:15;;;;;;;;;;;10.40;90.90;;;;;;5091631;28;19908;-82
2022/12/15 13:11:44;;;;;;;;;;;11.00;88.90;;;;;;5091176;28;19915;-82
2022/12/15 13:14:13;;;;;;;;;;;11.20;84.80;;;;;;5091380;28;19919;-82
2022/12/15 13:16:38;;;;;;;;;;;10.40;83.00;;;;;;5091618;28;19909;-81
2022/12/15 13:19:05;;;;;;;;;;;10.30;85.20;;;;;;5091937;28;19918;-81
2022/12/15 13:21:43;;;;;;;;;;;10.80;84.60;;;;;;5091270;28;20045;-81
2022/12/15 13:24:24;;;;;;;;;;;11.10;82.00;;;;;;5091512;28;20003;-81
2022/12/15 13:26:49;;;;;;;;;;;10.90;77.70;;;;;;5091898;28;20284;-81
2022/12/15 13:29:16;;;;;;;;;;;10.70;80.20;;;;;;5092846;28;19909;-81
2022/12/15 13:31:49;;;;;;;;;;;10.80;80.30;;;;;;5091345;28;19908;-81
2022/12/15 13:34:16;;;;;;;;;;;10.00;80.40;;;;;;5091367;28;19923;-83
2022/12/15 13:36:43;;;;;;;;;;;8.70;86.00;;;;;;5091767;28;19908;-83
2022/12/15 13:39:11;;;;;;;;;;;7.60;89.90;;;;;;5091615;28;19919;-82
2022/12/15 13:41:37;;;;;;;;;;;6.70;92.80;;;;;;5091344;28;19909;-82
2022/12/15 13:44:13;;;;;;;;;;;6.00;96.70;;;;;;5089903;28;20639;-82
2022/12/15 13:46:41;;;;;;;;;;;5.30;99.90;;;;;;5078184;28;20376;-81
2022/12/15 13:49:12;;;;;;;;;;;4.70;99.90;;;;;;5070763;28;19913;-81
2022/12/15 13:51:41;;;;;;;;;;;4.10;99.90;;;;;;5079392;28;20370;-80
2022/12/15 13:54:08;;;;;;;;;;;3.60;99.90;;;;;;5071688;28;19909;-80
2022/12/15 13:56:47;;;;;;;;;;;3.20;99.90;;;;;;5073356;28;19913;-80
2022/12/15 13:59:17;;;;;;;;;;;2.90;99.90;;;;;;5072902;28;19948;-81
2022/12/15 14:01:50;;;;;;;;;;;2.60;99.90;;;;;;5077916;28;19909;-81
2022/12/15 14:04:15;;;;;;;;;;;2.30;99.90;;;;;;5087955;28;20278;-81
2022/12/15 14:06:58;;;;;;;;;;;2.10;99.90;;;;;;5088774;28;19961;-82
2022/12/15 14:09:26;;;;;;;;;;;1.90;99.90;;;;;;5095758;28;19908;-81
2022/12/15 14:11:52;;;;;;;;;;;1.70;99.90;;;;;;5094829;28;19908;-81
2022/12/15 14:14:27;;;;;;;;;;;1.70;99.90;;;;;;5095046;28;19908;-82
2022/12/15 14:17:05;;;;;;;;;;;1.60;99.90;;;;;;5094879;28;19953;-82
2022/12/15 14:19:44;;;;;;;;;;;1.50;99.90;;;;;;5094768;28;19981;-81
2022/12/15 14:22:23;;;;;;;;;;;1.50;99.90;;;;;;5096022;28;19912;-81
2022/12/15 14:24:49;;;;;;;;;;;1.40;99.90;;;;;;5094838;28;19940;-80
2022/12/15 14:27:25;;;;;;;;;;;1.30;99.90;;;;;;5094343;28;19916;-81
2022/12/15 14:30:31;;;;;;;;;;;1.20;99.90;;;;;;5094558;28;19944;-81
2022/12/15 14:33:03;;;;;;;;;;;1.10;99.90;;;;;;5096867;28;19957;-81
2022/12/15 14:35:34;;;;;;;;;;;1.10;99.90;;;;;;5113471;28;19916;-80
2022/12/15 14:38:01;;;;;;;;;;;1.00;99.90;;;;;;5084528;28;20296;-80
2022/12/15 14:40:27;;;;;;;;;;;0.90;99.90;;;;;;5082492;28;19913;-81
2022/12/15 14:42:53;;;;;;;;;;;0.80;99.90;;;;;;5074200;28;19908;-82
2022/12/15 14:45:20;;;;;;;;;;;0.80;99.90;;;;;;5074677;28;19917;-81
2022/12/15 14:47:51;;;;;;;;;;;0.70;99.90;;;;;;5075568;28;19931;-82
2022/12/15 14:50:17;;;;;;;;;;;0.60;99.90;;;;;;5074116;28;19916;-82
2022/12/15 14:52:43;;;;;;;;;;;0.50;99.90;;;;;;5077226;28;20011;-80
2022/12/15 14:55:38;;;;;;;;;;;0.40;99.90;;;;;;5087837;28;20387;-79
2022/12/15 14:58:39;;;;;;;;;;;0.30;99.90;;;;;;5095659;28;19915;-82
2022/12/15 15:01:23;;;;;;;;;;;0.30;99.90;;;;;;5096195;28;19917;-79
2022/12/15 15:03:59;;;;;;;;;;;0.20;99.90;;;;;;5096139;28;19912;-80
2022/12/15 15:06:30;;;;;;;;;;;0.10;99.90;;;;;;5093669;28;19915;-81
2022/12/15 15:08:55;;;;;;;;;;;0.10;99.90;;;;;;5093783;28;19908;-81
2022/12/15 15:11:28;;;;;;;;;;;0.00;99.90;;;;;;5088826;28;19908;-85
2022/12/15 15:14:03;;;;;;;;;;;-0.10;99.90;;;;;;5092519;28;19973;-83
2022/12/15 15:16:29;;;;;;;;;;;-0.10;99.90;;;;;;5093203;28;20022;-83
2022/12/15 15:18:55;;;;;;;;;;;-0.20;99.90;;;;;;5092902;28;19970;-81
2022/12/15 15:21:25;;;;;;;;;;;-0.30;99.90;;;;;;5095284;28;19908;-83
2022/12/15 15:24:02;;;;;;;;;;;-0.30;99.90;;;;;;5096162;28;20498;-82
2022/12/15 15:26:28;;;;;;;;;;;-0.40;99.90;;;;;;5096411;28;19934;-82
2022/12/15 15:28:54;;;;;;;;;;;-0.40;99.90;;;;;;5095385;28;20408;-82
2022/12/15 15:31:36;;;;;;;;;;;-0.50;99.90;;;;;;5091005;28;19916;-81
2022/12/15 15:34:01;;;;;;;;;;;-0.50;99.90;;;;;;5088343;28;19916;-81
2022/12/15 15:36:31;;;;;;;;;;;-0.60;99.90;;;;;;5094603;28;20365;-82
2022/12/15 15:38:57;;;;;;;;;;;-0.70;99.90;;;;;;5094812;28;19912;-81
2022/12/15 15:41:28;;;;;;;;;;;-0.70;99.90;;;;;;5095344;28;19909;-82
2022/12/15 15:43:54;;;;;;;;;;;-0.70;99.90;;;;;;5095218;28;19908;-83
2022/12/15 15:46:21;;;;;;;;;;;-0.80;99.90;;;;;;5084164;28;20011;-85
2022/12/15 15:48:49;;;;;;;;;;;-0.80;99.90;;;;;;5076240;28;19970;-83
2022/12/15 15:51:14;;;;;;;;;;;-0.80;99.90;;;;;;5073274;28;20352;-83
2022/12/15 15:53:40;;;;;;;;;;;-0.90;99.90;;;;;;5073527;28;19950;-82
2022/12/15 15:56:07;;;;;;;;;;;-0.90;99.90;;;;;;5073634;28;20354;-82
2022/12/15 15:58:33;;;;;;;;;;;-1.00;99.90;;;;;;5072786;28;19908;-82
2022/12/15 16:00:58;;;;;;;;;;;-1.10;99.90;;;;;;5072677;28;19916;-82
2022/12/15 16:03:24;;;;;;;;;;;-1.10;99.90;;;;;;5083567;28;19961;-82
2022/12/15 16:05:49;;;;;;;;;;;-1.20;99.90;;;;;;5092058;28;19982;-83
2022/12/15 16:08:17;;;;;;;;;;;-1.30;99.90;;;;;;5093928;28;19916;-82
2022/12/15 16:10:44;;;;;;;;;;;-1.30;99.90;;;;;;5093531;28;19908;-82
2022/12/15 16:13:10;;;;;;;;;;;-1.40;99.90;;;;;;5092534;28;19909;-83
2022/12/15 16:15:36;;;;;;;;;;;-1.50;99.90;;;;;;5092874;28;19915;-83
2022/12/15 16:18:02;;;;;;;;;;;-1.50;99.90;;;;;;5095365;28;19915;-82
2022/12/15 16:20:28;;;;;;;;;;;-1.60;99.90;;;;;;5103539;28;19912;-82
2022/12/15 16:22:56;;;;;;;;;;;-1.60;99.90;;;;;;5101435;28;19995;-81
2022/12/15 16:25:48;;;;;;;;;;;-1.60;99.90;;;;;;5101740;28;20387;-82
2022/12/15 16:28:21;;;;;;;;;;;-1.70;99.90;;;;;;5105823;28;19908;-82
2022/12/15 16:30:47;;;;;;;;;;;-1.70;99.90;;;;;;5102824;28;19916;-81
2022/12/15 16:33:13;;;;;;;;;;;-1.70;99.90;;;;;;5101331;28;19910;-82
2022/12/15 16:35:39;;;;;;;;;;;-1.80;99.90;;;;;;5102797;28;19912;-82
2022/12/15 16:38:05;;;;;;;;;;;-1.80;99.90;;;;;;5103839;28;19915;-81
2022/12/15 16:40:35;;;;;;;;;;;-1.80;99.90;;;;;;5103689;28;19931;-81
2022/12/15 16:43:00;;;;;;;;;;;-1.80;99.90;;;;;;5099833;28;19963;-81
2022/12/15 16:45:30;;;;;;;;;;;-1.80;99.90;;;;;;5093987;28;19930;-82
2022/12/15 16:47:56;;;;;;;;;;;-1.80;99.90;;;;;;5102635;28;19948;-81
2022/12/15 16:50:29;;;;;;;;;;;-1.80;99.90;;;;;;5093599;28;19916;-81
2022/12/15 16:52:55;;;;;;;;;;;-1.80;99.90;;;;;;5101116;28;19973;-81
2022/12/15 16:55:25;;;;;;;;;;;-1.90;99.90;;;;;;5098577;28;19912;-81
2022/12/15 16:57:51;;;;;;;;;;;-1.90;99.90;;;;;;5098453;28;19912;-81
2022/12/15 17:00:21;;;;;;;;;;;-1.90;99.90;;;;;;5100764;28;19911;-80
2022/12/15 17:02:47;;;;;;;;;;;-1.90;99.90;;;;;;5100813;28;19940;-80